Time;durP1;ratioP1;P1;durP2;ratioP2;P2;SDS_P1;SDS_P2;PMS_P1;PMS_P2;Temp;Humidity;BMP_temperature;BMP_pressure;BME280_temperature;BME280_humidity;BME280_pressure;Samples;Min_cycle;Max_cycle;Signal;HPM_P1;HPM_P2
2022/05/05 00:00:55;;;;;;;;;;;11.40;99.90;;;;;;2622089;46;19993;31
2022/05/05 00:03:30;;;;;;;;;;;11.40;99.90;;;;;;2603719;54;20715;31
2022/05/05 00:06:06;;;;;;;;;;;11.30;99.90;;;;;;2622291;46;19942;31
2022/05/05 00:08:44;;;;;;;;;;;11.30;99.90;;;;;;2603073;54;19943;31
2022/05/05 00:14:31;;;;;;;;;;;11.10;99.90;;;;;;2603421;54;19939;31
2022/05/05 00:17:09;;;;;;;;;;;11.10;99.90;;;;;;2773633;31;20472;31
2022/05/05 00:19:45;;;;;;;;;;;11.00;99.90;;;;;;2603857;54;19989;31
2022/05/05 00:22:21;;;;;;;;;;;11.00;99.90;;;;;;2622081;46;19935;31
2022/05/05 00:24:55;;;;;;;;;;;10.90;99.90;;;;;;2603279;54;20801;31
2022/05/05 00:27:33;;;;;;;;;;;10.80;99.90;;;;;;2603766;54;19942;31
2022/05/05 00:30:15;;;;;;;;;;;10.80;99.90;;;;;;2603268;54;20819;31
2022/05/05 00:32:51;;;;;;;;;;;10.80;99.90;;;;;;2603733;54;19934;31
2022/05/05 00:35:31;;;;;;;;;;;10.70;99.90;;;;;;2773787;31;21081;31
2022/05/05 00:38:06;;;;;;;;;;;10.70;99.90;;;;;;2702240;39;21024;31
2022/05/05 00:40:48;;;;;;;;;;;10.70;99.90;;;;;;2621630;46;20799;31
2022/05/05 00:43:23;;;;;;;;;;;10.70;99.90;;;;;;2603412;54;19992;31
2022/05/05 00:46:01;;;;;;;;;;;10.70;99.90;;;;;;2603724;54;19941;31
2022/05/05 00:48:42;;;;;;;;;;;10.70;99.90;;;;;;2603419;54;19939;31
2022/05/05 00:51:18;;;;;;;;;;;10.60;99.90;;;;;;2603811;54;19941;31
2022/05/05 00:53:54;;;;;;;;;;;10.60;99.90;;;;;;2603409;54;19934;31
2022/05/05 00:56:29;;;;;;;;;;;10.60;99.90;;;;;;2621491;47;20780;31
2022/05/05 00:59:12;;;;;;;;;;;10.60;99.90;;;;;;2603312;54;19935;31
2022/05/05 01:01:49;;;;;;;;;;;10.50;99.90;;;;;;2702282;39;22100;31
2022/05/05 01:07:15;;;;;;;;;;;10.40;99.90;;;;;;2621834;47;20572;31
2022/05/05 01:09:49;;;;;;;;;;;10.40;99.90;;;;;;2621707;47;19941;31
2022/05/05 01:12:29;;;;;;;;;;;10.40;99.90;;;;;;2603608;54;19941;31
2022/05/05 01:15:05;;;;;;;;;;;10.30;99.90;;;;;;2603526;54;20780;31
2022/05/05 01:17:43;;;;;;;;;;;10.30;99.90;;;;;;2715324;39;20398;31
2022/05/05 01:20:18;;;;;;;;;;;10.20;99.90;;;;;;2602776;54;20785;31
2022/05/05 01:22:58;;;;;;;;;;;10.10;99.90;;;;;;2602772;54;19951;31
2022/05/05 01:28:23;;;;;;;;;;;10.10;99.90;;;;;;2622112;47;19935;31
2022/05/05 01:30:58;;;;;;;;;;;10.10;99.90;;;;;;2702055;39;20915;31
2022/05/05 01:33:33;;;;;;;;;;;10.00;99.90;;;;;;2621718;47;19994;31
2022/05/05 01:36:11;;;;;;;;;;;10.00;99.90;;;;;;2603315;54;19934;31
2022/05/05 01:38:51;;;;;;;;;;;10.00;99.90;;;;;;2621724;47;19935;31
2022/05/05 01:41:31;;;;;;;;;;;9.90;99.90;;;;;;2622198;47;20001;31
2022/05/05 01:44:07;;;;;;;;;;;9.90;99.90;;;;;;2604142;54;19938;31
2022/05/05 01:46:47;;;;;;;;;;;9.80;99.90;;;;;;2603847;54;19955;31
2022/05/05 01:49:22;;;;;;;;;;;9.80;99.90;;;;;;2622465;46;19938;31
2022/05/05 01:51:57;;;;;;;;;;;9.80;99.90;;;;;;2604368;54;19961;31
2022/05/05 01:54:36;;;;;;;;;;;9.70;99.90;;;;;;2702667;39;20450;31
2022/05/05 01:57:15;;;;;;;;;;;9.70;99.90;;;;;;2622945;46;20724;31
2022/05/05 02:00:00;;;;;;;;;;;9.70;99.90;;;;;;2603855;54;20739;31
2022/05/05 02:02:47;;;;;;;;;;;9.60;99.90;;;;;;2604240;54;20817;31
2022/05/05 02:05:22;;;;;;;;;;;9.50;99.90;;;;;;2603673;54;19997;31
2022/05/05 02:07:57;;;;;;;;;;;10.10;99.90;;;;;;2603210;54;20473;31
2022/05/05 02:10:32;;;;;;;;;;;9.40;99.90;;;;;;2603914;54;20021;31
2022/05/05 02:13:08;;;;;;;;;;;9.40;99.90;;;;;;2604246;54;19990;31
2022/05/05 02:15:48;;;;;;;;;;;9.40;99.90;;;;;;2622680;46;19939;31
2022/05/05 02:18:26;;;;;;;;;;;9.40;99.90;;;;;;2603946;54;19935;31
2022/05/05 02:21:04;;;;;;;;;;;9.30;99.90;;;;;;2622633;46;19934;31
2022/05/05 02:23:41;;;;;;;;;;;9.30;99.90;;;;;;2604125;54;19950;31
2022/05/05 02:26:21;;;;;;;;;;;9.20;99.90;;;;;;2610630;46;20478;31
2022/05/05 02:28:56;;;;;;;;;;;9.40;99.90;;;;;;2622738;46;19961;31
2022/05/05 02:31:34;;;;;;;;;;;9.20;99.90;;;;;;2604117;54;19935;31
2022/05/05 02:34:12;;;;;;;;;;;9.10;99.90;;;;;;2603927;54;19989;31
2022/05/05 02:39:39;;;;;;;;;;;9.10;99.90;;;;;;2603791;54;21292;31
2022/05/05 02:42:17;;;;;;;;;;;9.10;99.90;;;;;;2702676;39;20950;31
2022/05/05 02:44:56;;;;;;;;;;;9.10;99.90;;;;;;2622730;46;19950;31
2022/05/05 02:47:34;;;;;;;;;;;9.70;99.90;;;;;;2622603;46;20748;31
2022/05/05 02:50:18;;;;;;;;;;;9.10;99.90;;;;;;2603788;54;20817;31
2022/05/05 02:52:55;;;;;;;;;;;9.10;99.90;;;;;;2702427;39;20349;31
2022/05/05 02:55:31;;;;;;;;;;;9.30;99.90;;;;;;2702384;39;20390;31
2022/05/05 02:58:06;;;;;;;;;;;9.60;99.90;;;;;;2622170;46;20676;31
2022/05/05 03:00:47;;;;;;;;;;;9.00;99.90;;;;;;2612038;46;19942;31
2022/05/05 03:03:21;;;;;;;;;;;9.00;99.90;;;;;;2617347;46;19949;31
2022/05/05 03:06:01;;;;;;;;;;;9.00;99.90;;;;;;2603889;54;20785;31
2022/05/05 03:08:38;;;;;;;;;;;9.00;99.90;;;;;;2622357;46;20021;31
2022/05/05 03:11:15;;;;;;;;;;;9.50;99.90;;;;;;2622516;46;19943;31
2022/05/05 03:13:50;;;;;;;;;;;8.90;99.90;;;;;;2622343;46;20773;31
2022/05/05 03:16:28;;;;;;;;;;;8.90;99.90;;;;;;2622260;46;19935;31
2022/05/05 03:19:03;;;;;;;;;;;8.90;99.90;;;;;;2622492;46;20065;31
2022/05/05 03:21:41;;;;;;;;;;;8.90;99.90;;;;;;2603782;54;20016;31
2022/05/05 03:24:21;;;;;;;;;;;9.00;99.90;;;;;;2603809;54;20000;31
2022/05/05 03:26:56;;;;;;;;;;;9.00;99.90;;;;;;2603631;54;20656;31
2022/05/05 03:29:35;;;;;;;;;;;8.90;99.90;;;;;;2622438;46;20822;31
2022/05/05 03:32:13;;;;;;;;;;;8.90;99.90;;;;;;2603848;54;20764;31
2022/05/05 03:34:50;;;;;;;;;;;8.90;99.90;;;;;;2604144;54;20776;31
2022/05/05 03:37:28;;;;;;;;;;;8.90;99.90;;;;;;2622410;46;20030;31
2022/05/05 03:40:04;;;;;;;;;;;8.90;99.90;;;;;;2702673;39;20989;31
2022/05/05 03:42:39;;;;;;;;;;;9.00;99.90;;;;;;2603678;54;19989;31
2022/05/05 03:45:14;;;;;;;;;;;9.00;99.90;;;;;;2622292;46;19934;31
2022/05/05 03:47:55;;;;;;;;;;;9.00;99.90;;;;;;2603751;54;20782;31
2022/05/05 03:50:33;;;;;;;;;;;9.00;99.90;;;;;;2621738;46;19941;31
2022/05/05 03:53:11;;;;;;;;;;;9.10;99.90;;;;;;2603972;54;20050;31
2022/05/05 03:55:46;;;;;;;;;;;9.10;99.90;;;;;;2603710;54;19931;31
2022/05/05 03:58:23;;;;;;;;;;;9.20;99.90;;;;;;2603575;54;20696;31
2022/05/05 04:00:58;;;;;;;;;;;9.30;99.90;;;;;;2603146;54;19939;31
2022/05/05 04:03:48;;;;;;;;;;;9.40;99.90;;;;;;2603526;54;19950;31
2022/05/05 04:06:24;;;;;;;;;;;9.50;99.90;;;;;;2603678;54;19945;31
2022/05/05 04:09:03;;;;;;;;;;;9.60;99.90;;;;;;2603816;54;20775;31
2022/05/05 04:11:40;;;;;;;;;;;9.70;99.90;;;;;;2622444;46;20778;31
2022/05/05 04:14:17;;;;;;;;;;;9.90;99.90;;;;;;2603623;54;20723;31
2022/05/05 04:16:54;;;;;;;;;;;10.00;99.90;;;;;;2603565;54;19939;31
2022/05/05 04:19:29;;;;;;;;;;;10.10;99.90;;;;;;2603569;54;19992;31
2022/05/05 04:22:07;;;;;;;;;;;10.20;99.90;;;;;;2622126;46;20792;31
2022/05/05 04:24:47;;;;;;;;;;;10.40;99.90;;;;;;2603868;54;19977;31
2022/05/05 04:27:28;;;;;;;;;;;10.60;99.90;;;;;;2621884;46;19942;31
2022/05/05 04:30:07;;;;;;;;;;;10.70;99.90;;;;;;2603051;54;20662;31
2022/05/05 04:32:41;;;;;;;;;;;10.90;99.90;;;;;;2603625;54;19942;31
2022/05/05 04:35:16;;;;;;;;;;;11.10;99.90;;;;;;2603552;54;19990;31
2022/05/05 04:37:51;;;;;;;;;;;11.20;99.90;;;;;;2603447;54;19934;31
2022/05/05 04:40:26;;;;;;;;;;;11.30;99.90;;;;;;2622112;46;19934;31
2022/05/05 04:43:05;;;;;;;;;;;11.40;99.90;;;;;;2603509;54;19954;31
2022/05/05 04:45:46;;;;;;;;;;;11.60;99.90;;;;;;2603449;54;20029;31
2022/05/05 04:48:21;;;;;;;;;;;11.80;99.90;;;;;;2603188;54;19941;31
2022/05/05 04:50:56;;;;;;;;;;;12.00;99.90;;;;;;2603451;54;20732;31
2022/05/05 04:53:33;;;;;;;;;;;12.20;99.90;;;;;;2609094;47;19986;31
2022/05/05 04:56:10;;;;;;;;;;;12.40;99.90;;;;;;2621953;47;20016;31
2022/05/05 04:58:47;;;;;;;;;;;12.60;99.90;;;;;;2622285;47;19997;31
2022/05/05 05:01:20;;;;;;;;;;;12.70;99.90;;;;;;2621795;47;20904;31
2022/05/05 05:03:55;;;;;;;;;;;12.90;99.90;;;;;;2602659;54;19946;31
2022/05/05 05:06:29;;;;;;;;;;;13.10;99.90;;;;;;2702080;39;20541;31
2022/05/05 05:09:05;;;;;;;;;;;13.20;99.90;;;;;;2621098;47;19935;31
2022/05/05 05:11:38;;;;;;;;;;;13.50;99.90;;;;;;2621790;47;19935;31
2022/05/05 05:14:19;;;;;;;;;;;13.60;99.90;;;;;;2702048;39;20424;31
2022/05/05 05:17:02;;;;;;;;;;;13.80;99.90;;;;;;2603845;54;20836;31
2022/05/05 05:19:37;;;;;;;;;;;14.10;99.90;;;;;;2603988;54;20847;31
2022/05/05 05:22:11;;;;;;;;;;;14.20;99.90;;;;;;2622664;46;20778;31
2022/05/05 05:24:50;;;;;;;;;;;14.30;99.90;;;;;;2603525;54;20729;31
2022/05/05 05:27:25;;;;;;;;;;;14.50;99.90;;;;;;2603611;54;20003;31
2022/05/05 05:30:03;;;;;;;;;;;14.60;99.90;;;;;;2773458;31;21299;31
2022/05/05 05:32:37;;;;;;;;;;;14.80;99.90;;;;;;2622791;46;19942;31
2022/05/05 05:35:11;;;;;;;;;;;15.00;99.90;;;;;;2604009;54;20764;31
2022/05/05 05:37:47;;;;;;;;;;;15.10;99.90;;;;;;2604024;54;19957;31
2022/05/05 05:40:23;;;;;;;;;;;15.20;99.90;;;;;;2622625;46;19935;31
2022/05/05 05:43:00;;;;;;;;;;;15.40;99.90;;;;;;2604068;54;20740;31
2022/05/05 05:45:37;;;;;;;;;;;15.60;99.90;;;;;;2604116;54;19939;31
2022/05/05 05:48:12;;;;;;;;;;;15.80;99.90;;;;;;2603268;54;19935;31
2022/05/05 05:50:49;;;;;;;;;;;16.00;99.90;;;;;;2621916;46;20103;31
2022/05/05 05:53:24;;;;;;;;;;;16.30;99.90;;;;;;2622753;46;19986;31
2022/05/05 05:56:00;;;;;;;;;;;16.50;99.90;;;;;;2701756;39;21361;31
2022/05/05 05:58:35;;;;;;;;;;;16.80;99.90;;;;;;2603885;54;19941;31
2022/05/05 06:03:57;;;;;;;;;;;17.20;99.90;;;;;;2622523;46;19993;31
2022/05/05 06:06:33;;;;;;;;;;;17.50;99.90;;;;;;2702788;39;20473;31
2022/05/05 06:09:08;;;;;;;;;;;17.80;99.90;;;;;;2603921;54;20831;31
2022/05/05 06:11:50;;;;;;;;;;;17.80;99.90;;;;;;2622383;46;20013;31
2022/05/05 06:14:25;;;;;;;;;;;18.00;99.90;;;;;;2622659;46;20815;31
2022/05/05 06:16:59;;;;;;;;;;;18.20;99.90;;;;;;2622571;46;19938;31
2022/05/05 06:19:38;;;;;;;;;;;18.40;99.90;;;;;;2622258;46;19954;31
2022/05/05 06:22:13;;;;;;;;;;;18.60;99.90;;;;;;2608154;46;19935;31
2022/05/05 06:24:52;;;;;;;;;;;18.60;99.90;;;;;;2603285;54;20836;31
2022/05/05 06:27:28;;;;;;;;;;;18.80;99.90;;;;;;2603009;54;19950;31
2022/05/05 06:30:01;;;;;;;;;;;18.90;99.90;;;;;;2603320;54;19957;31
2022/05/05 06:32:37;;;;;;;;;;;19.10;99.90;;;;;;2604051;54;19941;31
2022/05/05 06:35:16;;;;;;;;;;;19.30;99.90;;;;;;2603890;54;19935;31
2022/05/05 06:37:51;;;;;;;;;;;19.60;99.90;;;;;;2609424;46;20700;31
2022/05/05 06:40:30;;;;;;;;;;;19.80;99.90;;;;;;2622703;46;19946;31
2022/05/05 06:43:07;;;;;;;;;;;19.90;99.90;;;;;;2603589;54;20470;31
2022/05/05 06:45:43;;;;;;;;;;;20.00;99.90;;;;;;2622273;46;19943;31
2022/05/05 06:48:21;;;;;;;;;;;20.20;99.90;;;;;;2622403;46;19935;31
2022/05/05 06:50:59;;;;;;;;;;;20.40;99.90;;;;;;2604151;54;19934;31
2022/05/05 06:53:32;;;;;;;;;;;20.60;99.90;;;;;;2604161;54;20817;31
2022/05/05 06:56:09;;;;;;;;;;;20.80;99.90;;;;;;2603163;54;19947;31
2022/05/05 06:58:43;;;;;;;;;;;21.00;99.90;;;;;;2603924;54;19989;31
2022/05/05 07:06:57;;;;;;;;;;;21.60;99.90;;;;;;2603946;54;19935;31
2022/05/05 07:12:27;;;;;;;;;;;22.10;99.90;;;;;;2622320;46;19939;31
2022/05/05 07:15:01;;;;;;;;;;;22.40;99.90;;;;;;2622159;46;20018;31
2022/05/05 07:17:39;;;;;;;;;;;22.40;99.90;;;;;;2603990;54;19946;31
2022/05/05 07:20:14;;;;;;;;;;;22.50;99.90;;;;;;2603825;54;19946;31
2022/05/05 07:22:51;;;;;;;;;;;22.50;99.90;;;;;;2603786;54;20823;31
2022/05/05 07:25:40;;;;;;;;;;;22.60;99.50;;;;;;2603742;54;20830;31
2022/05/05 07:28:17;;;;;;;;;;;22.80;99.80;;;;;;2721149;39;20904;31
2022/05/05 07:30:56;;;;;;;;;;;23.00;99.00;;;;;;2702337;39;20401;31
2022/05/05 07:33:35;;;;;;;;;;;23.10;99.00;;;;;;2603051;54;19935;31
2022/05/05 07:36:12;;;;;;;;;;;23.40;98.70;;;;;;2773095;31;20460;31
2022/05/05 07:38:49;;;;;;;;;;;23.70;98.50;;;;;;2621697;46;20704;31
2022/05/05 07:41:34;;;;;;;;;;;23.90;97.50;;;;;;2603767;54;19934;31
2022/05/05 07:44:10;;;;;;;;;;;23.80;96.40;;;;;;2603737;54;20841;31
2022/05/05 07:46:47;;;;;;;;;;;23.80;96.30;;;;;;2619381;46;20021;31
2022/05/05 07:49:23;;;;;;;;;;;23.70;95.70;;;;;;2622489;46;20022;31
2022/05/05 07:52:11;;;;;;;;;;;23.70;95.90;;;;;;2603487;54;20844;31
2022/05/05 07:54:47;;;;;;;;;;;23.70;96.00;;;;;;2622395;46;19989;31
2022/05/05 07:57:36;;;;;;;;;;;23.70;95.80;;;;;;2701447;39;21228;31
2022/05/05 08:00:17;;;;;;;;;;;23.80;96.10;;;;;;2603485;54;19939;31
2022/05/05 08:02:55;;;;;;;;;;;24.10;95.40;;;;;;2603752;54;20745;31
2022/05/05 08:08:32;;;;;;;;;;;24.70;94.70;;;;;;2603496;54;20774;31
2022/05/05 08:11:07;;;;;;;;;;;25.10;94.90;;;;;;2603546;54;19941;31
2022/05/05 08:13:45;;;;;;;;;;;25.40;93.50;;;;;;2603440;54;20668;31
2022/05/05 08:16:20;;;;;;;;;;;25.50;92.90;;;;;;2701941;39;21232;31
2022/05/05 08:18:55;;;;;;;;;;;25.60;92.70;;;;;;2622026;46;20779;31
2022/05/05 08:21:37;;;;;;;;;;;25.70;91.70;;;;;;2603737;54;19942;31
2022/05/05 08:30:00;;;;;;;;;;;25.90;91.10;;;;;;2603642;54;19941;31
2022/05/05 08:32:37;;;;;;;;;;;26.20;90.90;;;;;;2621653;46;20859;31
2022/05/05 08:38:10;;;;;;;;;;;26.60;90.10;;;;;;2603349;54;19934;31
2022/05/05 08:40:49;;;;;;;;;;;26.80;90.50;;;;;;2603863;47;19935;31
2022/05/05 08:43:24;;;;;;;;;;;26.90;88.80;;;;;;2613194;46;20033;31
2022/05/05 08:46:22;;;;;;;;;;;27.00;85.30;;;;;;2621880;46;19935;31
2022/05/05 08:48:57;;;;;;;;;;;26.80;85.00;;;;;;2621754;46;19941;31
2022/05/05 08:51:31;;;;;;;;;;;26.70;85.70;;;;;;2620866;47;20769;31
2022/05/05 08:54:05;;;;;;;;;;;26.90;86.30;;;;;;2703034;39;20951;31
2022/05/05 08:56:41;;;;;;;;;;;26.90;85.00;;;;;;2604459;54;19946;31
2022/05/05 08:59:21;;;;;;;;;;;26.80;86.00;;;;;;2604022;54;19934;31
2022/05/05 09:02:00;;;;;;;;;;;27.10;84.70;;;;;;2623069;46;20764;31
2022/05/05 09:04:38;;;;;;;;;;;26.80;82.70;;;;;;2604140;54;20656;31
2022/05/05 09:07:12;;;;;;;;;;;26.70;82.70;;;;;;2604040;54;20784;31
2022/05/05 09:09:50;;;;;;;;;;;26.70;83.00;;;;;;2622944;46;19942;31
2022/05/05 09:12:32;;;;;;;;;;;26.60;83.20;;;;;;2622677;46;19990;31
2022/05/05 09:15:10;;;;;;;;;;;26.60;81.10;;;;;;2604411;54;19934;31
2022/05/05 09:17:51;;;;;;;;;;;26.70;81.00;;;;;;2606216;46;20783;31
2022/05/05 09:20:36;;;;;;;;;;;26.70;81.50;;;;;;2604173;54;20840;31
2022/05/05 09:23:21;;;;;;;;;;;26.90;80.30;;;;;;2607760;46;19942;31
2022/05/05 09:26:01;;;;;;;;;;;27.00;78.60;;;;;;2603605;54;20687;31
2022/05/05 09:31:53;;;;;;;;;;;27.20;80.80;;;;;;2604059;54;20756;31
2022/05/05 09:34:31;;;;;;;;;;;27.30;79.10;;;;;;2603783;54;20748;31
2022/05/05 09:37:21;;;;;;;;;;;27.10;76.70;;;;;;2622864;46;19941;31
2022/05/05 09:40:06;;;;;;;;;;;27.40;79.10;;;;;;2604068;54;19938;31
2022/05/05 09:42:47;;;;;;;;;;;27.50;78.20;;;;;;2603927;54;20755;31
2022/05/05 09:45:33;;;;;;;;;;;27.30;76.80;;;;;;2603912;54;19989;31
2022/05/05 09:48:15;;;;;;;;;;;27.10;76.70;;;;;;2608083;46;19961;31
2022/05/05 09:50:56;;;;;;;;;;;27.10;76.20;;;;;;2613278;46;20788;31
2022/05/05 10:01:56;;;;;;;;;;;27.30;74.80;;;;;;2603818;54;19942;31
2022/05/05 10:04:30;;;;;;;;;;;27.60;74.40;;;;;;2622373;46;19942;31
2022/05/05 10:10:08;;;;;;;;;;;27.50;74.80;;;;;;2603514;54;19950;31
2022/05/05 10:12:47;;;;;;;;;;;27.40;74.10;;;;;;2603933;54;19935;31
2022/05/05 10:15:28;;;;;;;;;;;27.20;74.30;;;;;;2603965;54;19981;31
2022/05/05 10:18:28;;;;;;;;;;;27.00;73.90;;;;;;2603711;54;20656;31
2022/05/05 10:21:08;;;;;;;;;;;27.10;74.60;;;;;;2603780;54;20657;31
2022/05/05 10:23:53;;;;;;;;;;;27.10;74.00;;;;;;2603065;54;19992;31
2022/05/05 10:26:32;;;;;;;;;;;27.00;75.40;;;;;;2603178;54;20055;31
2022/05/05 10:29:28;;;;;;;;;;;27.10;76.10;;;;;;2622476;46;20062;31
2022/05/05 10:32:10;;;;;;;;;;;27.20;73.00;;;;;;2604030;54;19941;31
2022/05/05 10:34:47;;;;;;;;;;;26.90;74.40;;;;;;2622345;46;20814;31
2022/05/05 10:37:27;;;;;;;;;;;26.80;73.60;;;;;;2604020;54;19946;31
2022/05/05 10:40:08;;;;;;;;;;;26.90;74.60;;;;;;2620180;46;20742;31
2022/05/05 10:42:48;;;;;;;;;;;27.00;75.80;;;;;;2604150;54;20011;31
2022/05/05 10:45:36;;;;;;;;;;;26.80;74.40;;;;;;2622438;46;20009;31
2022/05/05 10:48:15;;;;;;;;;;;26.80;74.30;;;;;;2603706;54;19938;31
2022/05/05 10:50:56;;;;;;;;;;;26.90;74.20;;;;;;2622312;46;20896;31
2022/05/05 10:53:39;;;;;;;;;;;26.80;72.80;;;;;;2603837;54;19934;31
2022/05/05 10:56:32;;;;;;;;;;;26.80;74.40;;;;;;2603725;54;20815;31
2022/05/05 10:59:13;;;;;;;;;;;26.80;73.20;;;;;;2622630;46;19941;31
2022/05/05 11:02:06;;;;;;;;;;;26.90;74.00;;;;;;2621856;46;19941;31
2022/05/05 11:07:43;;;;;;;;;;;26.90;73.50;;;;;;2603604;54;19939;31
2022/05/05 11:10:41;;;;;;;;;;;27.00;74.40;;;;;;2603680;54;20689;31
2022/05/05 11:13:38;;;;;;;;;;;26.90;73.70;;;;;;2603737;54;19935;31
2022/05/05 11:22:23;;;;;;;;;;;26.60;73.00;;;;;;2622035;46;19935;31
2022/05/05 11:25:39;;;;;;;;;;;26.60;71.20;;;;;;2622548;39;20251;31
2022/05/05 11:28:36;;;;;;;;;;;26.50;70.80;;;;;;2603002;54;19946;31
2022/05/05 11:31:51;;;;;;;;;;;26.20;71.40;;;;;;2602875;54;19944;31
2022/05/05 11:34:35;;;;;;;;;;;26.20;70.70;;;;;;2603775;54;19941;31
2022/05/05 11:40:02;;;;;;;;;;;26.40;71.50;;;;;;2604418;39;20239;31
2022/05/05 11:44:14;;;;;;;;;;;26.40;72.90;;;;;;2602892;54;20777;31
2022/05/05 11:45:35;;;;;;;;;;;26.40;73.30;;;;;;2622192;46;20828;31
2022/05/05 11:48:17;;;;;;;;;;;26.40;73.70;;;;;;2603826;54;20049;31
2022/05/05 11:51:11;;;;;;;;;;;26.30;71.00;;;;;;2622237;46;19935;31
2022/05/05 11:53:52;;;;;;;;;;;26.30;71.30;;;;;;2603849;54;19935;31
2022/05/05 11:56:34;;;;;;;;;;;26.30;70.70;;;;;;2603400;54;19935;31
2022/05/05 12:02:17;;;;;;;;;;;26.30;71.40;;;;;;2622353;46;19954;31
2022/05/05 12:04:56;;;;;;;;;;;26.30;70.30;;;;;;2603754;54;19986;31
2022/05/05 12:07:35;;;;;;;;;;;26.00;68.90;;;;;;2603912;54;19934;31
2022/05/05 12:10:13;;;;;;;;;;;25.80;70.80;;;;;;2602993;54;19993;31
2022/05/05 12:12:52;;;;;;;;;;;25.60;72.40;;;;;;2621617;46;19953;31
2022/05/05 12:15:31;;;;;;;;;;;25.50;71.40;;;;;;2603796;54;20766;31
2022/05/05 12:18:13;;;;;;;;;;;25.60;73.00;;;;;;2603545;54;19934;31
2022/05/05 12:20:49;;;;;;;;;;;25.60;73.90;;;;;;2621819;46;19941;31
2022/05/05 12:23:28;;;;;;;;;;;25.80;73.30;;;;;;2621895;46;20764;31
2022/05/05 12:26:12;;;;;;;;;;;25.90;74.10;;;;;;2602717;54;20819;31
2022/05/05 12:31:55;;;;;;;;;;;25.90;73.20;;;;;;2621881;46;19942;31
2022/05/05 12:34:45;;;;;;;;;;;25.80;72.00;;;;;;2603772;54;19990;31
2022/05/05 12:37:23;;;;;;;;;;;25.60;71.60;;;;;;2622097;46;19935;31
2022/05/05 12:40:12;;;;;;;;;;;25.40;71.40;;;;;;2622138;46;19934;31
2022/05/05 12:42:49;;;;;;;;;;;25.30;73.00;;;;;;2622165;46;19941;31
2022/05/05 12:45:27;;;;;;;;;;;25.20;72.20;;;;;;2720824;39;20951;31
2022/05/05 12:48:07;;;;;;;;;;;25.20;73.40;;;;;;2620762;46;20744;31
2022/05/05 12:50:46;;;;;;;;;;;25.30;75.10;;;;;;2603720;54;19939;31
2022/05/05 13:01:52;;;;;;;;;;;25.20;75.60;;;;;;2621533;47;19960;31
2022/05/05 13:04:30;;;;;;;;;;;25.10;74.50;;;;;;2603312;54;19950;31
2022/05/05 13:07:06;;;;;;;;;;;25.00;75.70;;;;;;2603180;54;19957;31
2022/05/05 13:12:20;;;;;;;;;;;24.80;75.30;;;;;;2603235;54;19969;31
2022/05/05 13:14:58;;;;;;;;;;;24.60;83.60;;;;;;2621894;47;19942;31
2022/05/05 13:17:36;;;;;;;;;;;24.20;87.60;;;;;;2701926;39;20926;31
2022/05/05 13:20:18;;;;;;;;;;;23.80;89.60;;;;;;2603329;54;19935;31
2022/05/05 13:22:51;;;;;;;;;;;23.40;91.00;;;;;;2603477;54;19954;31
2022/05/05 13:25:27;;;;;;;;;;;22.90;91.70;;;;;;2603434;54;19941;31
2022/05/05 13:28:02;;;;;;;;;;;22.40;92.40;;;;;;2603260;54;19997;31
2022/05/05 13:30:36;;;;;;;;;;;22.10;93.10;;;;;;2603255;54;19941;31
2022/05/05 13:33:16;;;;;;;;;;;21.80;94.10;;;;;;2604125;47;19941;31
2022/05/05 13:35:54;;;;;;;;;;;21.50;94.70;;;;;;2622077;47;19989;31
2022/05/05 13:38:29;;;;;;;;;;;21.20;95.50;;;;;;2614592;47;20021;31
2022/05/05 13:41:28;;;;;;;;;;;21.00;96.10;;;;;;2603966;54;19935;31
2022/05/05 13:44:04;;;;;;;;;;;20.80;96.80;;;;;;2603858;54;20871;31
2022/05/05 13:46:51;;;;;;;;;;;20.70;97.50;;;;;;2603923;54;20762;31
2022/05/05 13:49:26;;;;;;;;;;;20.50;97.80;;;;;;2603932;54;19977;31
2022/05/05 13:52:03;;;;;;;;;;;20.40;98.50;;;;;;2604188;54;19942;31
2022/05/05 13:54:49;;;;;;;;;;;20.40;98.80;;;;;;2603983;54;19947;31
2022/05/05 13:57:25;;;;;;;;;;;20.40;98.50;;;;;;2604013;54;19934;31
2022/05/05 14:00:00;;;;;;;;;;;20.30;98.00;;;;;;2604238;54;20749;31
2022/05/05 14:02:45;;;;;;;;;;;20.30;97.40;;;;;;2603755;54;20784;31
2022/05/05 14:05:22;;;;;;;;;;;20.10;98.00;;;;;;2603984;54;19934;31
2022/05/05 14:13:41;;;;;;;;;;;19.70;99.30;;;;;;2604089;54;19934;31
2022/05/05 14:16:15;;;;;;;;;;;19.50;99.90;;;;;;2604060;54;19958;31
2022/05/05 14:18:50;;;;;;;;;;;19.40;99.90;;;;;;2603861;54;19941;31
2022/05/05 14:21:24;;;;;;;;;;;19.30;99.90;;;;;;2622741;46;20014;31
2022/05/05 14:24:01;;;;;;;;;;;19.20;99.90;;;;;;2622240;46;20002;31
2022/05/05 14:26:35;;;;;;;;;;;19.10;99.90;;;;;;2622501;46;19954;31
2022/05/05 14:29:08;;;;;;;;;;;19.00;99.90;;;;;;2702779;39;21034;31
2022/05/05 14:31:42;;;;;;;;;;;19.00;99.90;;;;;;2604058;54;20733;31
2022/05/05 14:34:17;;;;;;;;;;;18.90;99.90;;;;;;2603637;54;19950;31
2022/05/05 14:36:50;;;;;;;;;;;18.70;99.90;;;;;;2603839;54;20018;31
2022/05/05 14:39:28;;;;;;;;;;;18.50;99.90;;;;;;2603992;54;20839;31
2022/05/05 14:42:01;;;;;;;;;;;18.20;99.90;;;;;;2621814;46;20821;31
2022/05/05 14:44:35;;;;;;;;;;;18.10;99.90;;;;;;2603838;54;19953;31
2022/05/05 14:47:09;;;;;;;;;;;17.80;99.90;;;;;;2622368;46;20009;31
2022/05/05 14:49:48;;;;;;;;;;;17.60;99.90;;;;;;2603497;54;19941;31
2022/05/05 14:52:23;;;;;;;;;;;17.40;99.90;;;;;;2603571;54;19949;31
2022/05/05 14:54:58;;;;;;;;;;;17.20;99.90;;;;;;2603998;54;20712;31
2022/05/05 14:57:33;;;;;;;;;;;17.00;99.90;;;;;;2603919;54;19934;31
2022/05/05 15:00:07;;;;;;;;;;;16.80;99.90;;;;;;2603770;54;19957;31
2022/05/05 15:02:42;;;;;;;;;;;16.80;99.90;;;;;;2603711;54;19954;31
2022/05/05 15:05:16;;;;;;;;;;;16.70;99.90;;;;;;2603645;54;20065;31
2022/05/05 15:07:51;;;;;;;;;;;16.70;99.90;;;;;;2609142;39;20181;31
2022/05/05 15:10:29;;;;;;;;;;;16.70;99.90;;;;;;2622110;46;20009;31
2022/05/05 15:13:03;;;;;;;;;;;16.60;99.90;;;;;;2621642;46;19935;31
2022/05/05 15:15:36;;;;;;;;;;;16.70;99.90;;;;;;2603610;54;20830;31
2022/05/05 15:18:10;;;;;;;;;;;16.70;99.90;;;;;;2603636;54;19942;31
2022/05/05 15:20:44;;;;;;;;;;;16.70;99.90;;;;;;2603727;54;19957;31
2022/05/05 15:23:18;;;;;;;;;;;16.70;99.90;;;;;;2603593;54;20807;31
2022/05/05 15:25:54;;;;;;;;;;;16.70;99.90;;;;;;2621974;46;19993;31
2022/05/05 15:28:32;;;;;;;;;;;16.80;99.90;;;;;;2603689;54;19941;31
2022/05/05 15:31:06;;;;;;;;;;;16.80;99.90;;;;;;2603567;54;20013;31
2022/05/05 15:33:43;;;;;;;;;;;16.90;99.90;;;;;;2621903;46;20028;31
2022/05/05 15:36:18;;;;;;;;;;;17.00;99.90;;;;;;2603443;54;20734;31
2022/05/05 15:38:51;;;;;;;;;;;17.10;99.90;;;;;;2603466;54;19977;31
2022/05/05 15:41:25;;;;;;;;;;;17.20;99.90;;;;;;2603484;54;20746;31
2022/05/05 15:44:02;;;;;;;;;;;17.30;99.90;;;;;;2603253;54;20791;31
2022/05/05 15:46:36;;;;;;;;;;;17.40;99.90;;;;;;2603474;54;19942;31
2022/05/05 15:49:11;;;;;;;;;;;17.50;99.90;;;;;;2603412;54;19998;31
2022/05/05 15:51:46;;;;;;;;;;;17.50;99.90;;;;;;2603515;54;19935;31
2022/05/05 15:54:20;;;;;;;;;;;17.60;99.90;;;;;;2603293;54;20021;31
2022/05/05 15:56:55;;;;;;;;;;;17.70;99.90;;;;;;2603317;54;20007;31
2022/05/05 15:59:39;;;;;;;;;;;17.80;99.90;;;;;;2603612;54;19941;31
2022/05/05 16:02:19;;;;;;;;;;;17.80;99.90;;;;;;2603801;54;20768;31
2022/05/05 16:04:55;;;;;;;;;;;17.90;99.90;;;;;;2603608;54;19943;31
2022/05/05 16:07:29;;;;;;;;;;;18.00;99.90;;;;;;2621880;46;20005;31
2022/05/05 16:10:03;;;;;;;;;;;18.10;99.90;;;;;;2603496;54;19942;31
2022/05/05 16:12:38;;;;;;;;;;;18.10;99.90;;;;;;2603531;54;20780;31
2022/05/05 16:15:12;;;;;;;;;;;18.20;99.90;;;;;;2622235;46;19946;31
2022/05/05 16:17:50;;;;;;;;;;;18.20;99.90;;;;;;2603590;54;19993;31
2022/05/05 16:20:23;;;;;;;;;;;18.20;99.90;;;;;;2603457;54;19996;31
2022/05/05 16:22:56;;;;;;;;;;;18.30;99.90;;;;;;2603468;54;19935;31
2022/05/05 16:31:06;;;;;;;;;;;18.40;99.90;;;;;;2603227;54;20671;31
2022/05/05 16:33:45;;;;;;;;;;;18.50;99.90;;;;;;2621758;46;19954;31
2022/05/05 16:36:26;;;;;;;;;;;18.40;99.90;;;;;;2622214;46;19946;31
2022/05/05 16:39:02;;;;;;;;;;;18.50;99.90;;;;;;2622016;46;19958;31
2022/05/05 16:41:46;;;;;;;;;;;18.50;99.90;;;;;;2603293;54;20625;31
2022/05/05 16:44:26;;;;;;;;;;;18.40;99.90;;;;;;2621545;46;19965;31
2022/05/05 16:47:01;;;;;;;;;;;18.40;99.90;;;;;;2622064;46;19935;31
2022/05/05 16:49:39;;;;;;;;;;;18.40;99.90;;;;;;2603545;54;19935;31
2022/05/05 16:52:19;;;;;;;;;;;18.30;99.90;;;;;;2603399;54;20062;31
2022/05/05 16:54:56;;;;;;;;;;;18.40;99.90;;;;;;2603435;54;20792;31
2022/05/05 16:57:34;;;;;;;;;;;18.40;99.90;;;;;;2603186;54;19946;31
2022/05/05 17:00:11;;;;;;;;;;;18.40;99.90;;;;;;2603494;54;20776;31
2022/05/05 17:02:48;;;;;;;;;;;18.40;99.90;;;;;;2603342;54;19942;31
2022/05/05 17:05:29;;;;;;;;;;;18.40;99.90;;;;;;2603484;54;20697;31